sensor_id;sensor_type;location;lat;lon;timestamp;pressure;altitude;pressure_sealevel;temperature;humidity
62510;BME280;48558;48.242;11.654;2023-09-30T00:01:09;96983.25;;;15.79;100.00
62510;BME280;48558;48.242;11.654;2023-09-30T00:05:26;96974.28;;;15.90;100.00
62510;BME280;48558;48.242;11.654;2023-09-30T00:09:39;96985.06;;;16.12;100.00
62510;BME280;48558;48.242;11.654;2023-09-30T00:13:52;96989.81;;;16.40;99.72
62510;BME280;48558;48.242;11.654;2023-09-30T00:18:05;96993.38;;;16.26;100.00
62510;BME280;48558;48.242;11.654;2023-09-30T00:22:17;96983.44;;;15.91;100.00
62510;BME280;48558;48.242;11.654;2023-09-30T00:26:30;96993.34;;;15.92;100.00
62510;BME280;48558;48.242;11.654;2023-09-30T00:30:42;96999.78;;;15.68;100.00
62510;BME280;48558;48.242;11.654;2023-09-30T00:35:01;97015.31;;;15.60;100.00
62510;BME280;48558;48.242;11.654;2023-09-30T00:39:14;97018.25;;;15.42;100.00
62510;BME280;48558;48.242;11.654;2023-09-30T00:43:27;97011.63;;;15.01;100.00
62510;BME280;48558;48.242;11.654;2023-09-30T00:47:40;97019.25;;;14.92;100.00
62510;BME280;48558;48.242;11.654;2023-09-30T00:51:54;97010.56;;;14.75;100.00
62510;BME280;48558;48.242;11.654;2023-09-30T00:56:07;97021.78;;;14.57;100.00
62510;BME280;48558;48.242;11.654;2023-09-30T01:00:20;97027.88;;;14.47;100.00
62510;BME280;48558;48.242;11.654;2023-09-30T01:04:33;97026.84;;;14.35;100.00
62510;BME280;48558;48.242;11.654;2023-09-30T01:08:46;97036.06;;;14.41;100.00
62510;BME280;48558;48.242;11.654;2023-09-30T01:12:59;97031.53;;;14.53;100.00
62510;BME280;48558;48.242;11.654;2023-09-30T01:17:11;97020.38;;;14.62;100.00
62510;BME280;48558;48.242;11.654;2023-09-30T01:21:27;97020.78;;;14.69;100.00
62510;BME280;48558;48.242;11.654;2023-09-30T01:25:40;97030.75;;;14.85;100.00
62510;BME280;48558;48.242;11.654;2023-09-30T01:29:52;97027.50;;;15.10;100.00
62510;BME280;48558;48.242;11.654;2023-09-30T01:34:05;97034.50;;;15.20;100.00
62510;BME280;48558;48.242;11.654;2023-09-30T01:38:17;97016.06;;;15.08;100.00
62510;BME280;48558;48.242;11.654;2023-09-30T01:42:30;97025.72;;;14.98;100.00
62510;BME280;48558;48.242;11.654;2023-09-30T01:46:43;97031.56;;;15.00;100.00
62510;BME280;48558;48.242;11.654;2023-09-30T01:50:56;97027.66;;;14.83;100.00
62510;BME280;48558;48.242;11.654;2023-09-30T01:55:08;97036.28;;;14.61;100.00
62510;BME280;48558;48.242;11.654;2023-09-30T01:59:21;97044.38;;;14.50;100.00
62510;BME280;48558;48.242;11.654;2023-09-30T02:03:33;97032.84;;;14.43;100.00
62510;BME280;48558;48.242;11.654;2023-09-30T02:07:49;97032.22;;;14.38;100.00
62510;BME280;48558;48.242;11.654;2023-09-30T02:12:02;97039.38;;;14.30;100.00
62510;BME280;48558;48.242;11.654;2023-09-30T02:16:15;97042.59;;;14.29;100.00
62510;BME280;48558;48.242;11.654;2023-09-30T02:20:28;97039.66;;;14.32;100.00
62510;BME280;48558;48.242;11.654;2023-09-30T02:24:42;97033.59;;;14.43;100.00
62510;BME280;48558;48.242;11.654;2023-09-30T02:28:55;97035.56;;;14.52;100.00
62510;BME280;48558;48.242;11.654;2023-09-30T02:33:09;97034.13;;;14.65;100.00
62510;BME280;48558;48.242;11.654;2023-09-30T02:37:22;97010.66;;;14.57;100.00
62510;BME280;48558;48.242;11.654;2023-09-30T02:41:36;97032.66;;;14.79;100.00
62510;BME280;48558;48.242;11.654;2023-09-30T02:45:49;97034.94;;;14.80;100.00
62510;BME280;48558;48.242;11.654;2023-09-30T02:50:05;97041.53;;;14.92;100.00
62510;BME280;48558;48.242;11.654;2023-09-30T02:54:20;97024.63;;;14.95;100.00
62510;BME280;48558;48.242;11.654;2023-09-30T02:58:33;97025.47;;;14.87;100.00
62510;BME280;48558;48.242;11.654;2023-09-30T03:02:46;97039.09;;;14.85;100.00
62510;BME280;48558;48.242;11.654;2023-09-30T03:07:08;97036.13;;;14.88;100.00
62510;BME280;48558;48.242;11.654;2023-09-30T03:11:21;97038.44;;;14.90;100.00
62510;BME280;48558;48.242;11.654;2023-09-30T03:15:35;97040.31;;;14.84;100.00
62510;BME280;48558;48.242;11.654;2023-09-30T03:19:48;97038.22;;;14.79;100.00
62510;BME280;48558;48.242;11.654;2023-09-30T03:24:04;97037.47;;;14.93;100.00
62510;BME280;48558;48.242;11.654;2023-09-30T03:28:16;97036.41;;;14.67;100.00
62510;BME280;48558;48.242;11.654;2023-09-30T03:32:30;97026.75;;;14.53;100.00
62510;BME280;48558;48.242;11.654;2023-09-30T03:36:45;97043.59;;;14.50;100.00
62510;BME280;48558;48.242;11.654;2023-09-30T03:40:59;97047.38;;;14.38;100.00
62510;BME280;48558;48.242;11.654;2023-09-30T03:45:12;97053.69;;;14.47;100.00
62510;BME280;48558;48.242;11.654;2023-09-30T03:49:28;97048.09;;;14.80;100.00
62510;BME280;48558;48.242;11.654;2023-09-30T03:53:45;97052.88;;;14.79;100.00
62510;BME280;48558;48.242;11.654;2023-09-30T03:57:58;97051.09;;;14.91;100.00
62510;BME280;48558;48.242;11.654;2023-09-30T04:02:10;97062.91;;;15.09;100.00
62510;BME280;48558;48.242;11.654;2023-09-30T04:06:23;97043.94;;;15.23;100.00
62510;BME280;48558;48.242;11.654;2023-09-30T04:10:35;97049.84;;;15.39;100.00
62510;BME280;48558;48.242;11.654;2023-09-30T04:14:48;97049.22;;;15.44;100.00
62510;BME280;48558;48.242;11.654;2023-09-30T04:19:02;97045.38;;;15.56;100.00
62510;BME280;48558;48.242;11.654;2023-09-30T04:23:14;97045.78;;;15.64;100.00
62510;BME280;48558;48.242;11.654;2023-09-30T04:27:27;97045.00;;;15.63;100.00
62510;BME280;48558;48.242;11.654;2023-09-30T04:31:40;97068.84;;;15.64;100.00
62510;BME280;48558;48.242;11.654;2023-09-30T04:35:54;97060.56;;;15.55;100.00
62510;BME280;48558;48.242;11.654;2023-09-30T04:40:08;97061.31;;;15.56;100.00
62510;BME280;48558;48.242;11.654;2023-09-30T04:44:33;97027.72;;;15.59;100.00
62510;BME280;48558;48.242;11.654;2023-09-30T04:48:46;97049.66;;;15.81;100.00
62510;BME280;48558;48.242;11.654;2023-09-30T04:53:00;97056.00;;;15.82;100.00
62510;BME280;48558;48.242;11.654;2023-09-30T04:57:14;97060.13;;;15.86;100.00
62510;BME280;48558;48.242;11.654;2023-09-30T05:01:27;97069.59;;;15.65;100.00
62510;BME280;48558;48.242;11.654;2023-09-30T05:05:45;97049.84;;;15.39;100.00
62510;BME280;48558;48.242;11.654;2023-09-30T05:09:58;97079.72;;;15.15;100.00
62510;BME280;48558;48.242;11.654;2023-09-30T05:14:15;97072.25;;;14.97;100.00
62510;BME280;48558;48.242;11.654;2023-09-30T05:18:28;97077.84;;;14.65;100.00
62510;BME280;48558;48.242;11.654;2023-09-30T05:22:41;97097.09;;;14.45;100.00
62510;BME280;48558;48.242;11.654;2023-09-30T05:26:57;97100.34;;;14.34;100.00
62510;BME280;48558;48.242;11.654;2023-09-30T05:31:10;97094.94;;;14.40;100.00
62510;BME280;48558;48.242;11.654;2023-09-30T05:35:23;97091.53;;;14.45;100.00
62510;BME280;48558;48.242;11.654;2023-09-30T05:39:36;97104.19;;;14.46;100.00
62510;BME280;48558;48.242;11.654;2023-09-30T05:43:49;97102.66;;;14.45;100.00
62510;BME280;48558;48.242;11.654;2023-09-30T05:48:02;97107.81;;;14.70;100.00
62510;BME280;48558;48.242;11.654;2023-09-30T05:52:18;97108.03;;;14.90;100.00
62510;BME280;48558;48.242;11.654;2023-09-30T05:56:31;97116.22;;;15.17;100.00
62510;BME280;48558;48.242;11.654;2023-09-30T06:00:43;97106.91;;;15.20;100.00
62510;BME280;48558;48.242;11.654;2023-09-30T06:04:56;97105.19;;;15.23;100.00
62510;BME280;48558;48.242;11.654;2023-09-30T06:09:09;97127.53;;;15.37;100.00
62510;BME280;48558;48.242;11.654;2023-09-30T06:13:21;97122.44;;;15.59;100.00
62510;BME280;48558;48.242;11.654;2023-09-30T06:17:34;97114.88;;;15.74;100.00
62510;BME280;48558;48.242;11.654;2023-09-30T06:21:47;97116.97;;;15.65;100.00
62510;BME280;48558;48.242;11.654;2023-09-30T06:25:59;97114.94;;;15.51;100.00
62510;BME280;48558;48.242;11.654;2023-09-30T06:30:15;97122.56;;;15.41;100.00
62510;BME280;48558;48.242;11.654;2023-09-30T06:34:29;97144.84;;;15.65;100.00
62510;BME280;48558;48.242;11.654;2023-09-30T06:38:43;97158.25;;;15.75;100.00
62510;BME280;48558;48.242;11.654;2023-09-30T06:42:56;97150.59;;;15.85;100.00
62510;BME280;48558;48.242;11.654;2023-09-30T06:47:10;97145.81;;;16.15;100.00
62510;BME280;48558;48.242;11.654;2023-09-30T06:51:24;97157.72;;;16.15;100.00
62510;BME280;48558;48.242;11.654;2023-09-30T06:55:39;97152.38;;;16.41;100.00
62510;BME280;48558;48.242;11.654;2023-09-30T06:59:52;97146.41;;;16.48;100.00
62510;BME280;48558;48.242;11.654;2023-09-30T07:04:04;97155.25;;;16.46;100.00
62510;BME280;48558;48.242;11.654;2023-09-30T07:08:18;97163.41;;;16.35;100.00
62510;BME280;48558;48.242;11.654;2023-09-30T07:12:33;97162.88;;;16.75;100.00
62510;BME280;48558;48.242;11.654;2023-09-30T07:16:48;97162.19;;;16.80;100.00
62510;BME280;48558;48.242;11.654;2023-09-30T07:21:00;97168.66;;;16.86;100.00
62510;BME280;48558;48.242;11.654;2023-09-30T07:25:14;97180.25;;;16.99;99.44
62510;BME280;48558;48.242;11.654;2023-09-30T07:29:28;97184.00;;;17.11;98.18
62510;BME280;48558;48.242;11.654;2023-09-30T07:33:40;97192.94;;;17.30;96.30
62510;BME280;48558;48.242;11.654;2023-09-30T07:37:53;97202.53;;;16.79;97.69
62510;BME280;48558;48.242;11.654;2023-09-30T07:42:08;97197.34;;;16.72;100.00
62510;BME280;48558;48.242;11.654;2023-09-30T07:46:21;97193.75;;;16.72;100.00
62510;BME280;48558;48.242;11.654;2023-09-30T07:50:34;97200.13;;;16.72;99.35
62510;BME280;48558;48.242;11.654;2023-09-30T07:54:47;97194.16;;;16.79;97.57
62510;BME280;48558;48.242;11.654;2023-09-30T07:59:00;97197.13;;;16.90;97.50
62510;BME280;48558;48.242;11.654;2023-09-30T08:03:14;97203.22;;;17.23;96.10
62510;BME280;48558;48.242;11.654;2023-09-30T08:07:26;97200.66;;;17.05;93.62
62510;BME280;48558;48.242;11.654;2023-09-30T08:11:39;97207.69;;;17.15;92.45
62510;BME280;48558;48.242;11.654;2023-09-30T08:15:52;97217.66;;;17.37;92.08
62510;BME280;48558;48.242;11.654;2023-09-30T08:20:06;97207.47;;;17.88;87.08
62510;BME280;48558;48.242;11.654;2023-09-30T08:24:21;97184.59;;;17.90;84.12
62510;BME280;48558;48.242;11.654;2023-09-30T08:28:34;97196.59;;;18.16;82.53
62510;BME280;48558;48.242;11.654;2023-09-30T08:32:48;97216.88;;;18.31;82.60
62510;BME280;48558;48.242;11.654;2023-09-30T08:37:00;97202.63;;;17.89;85.33
62510;BME280;48558;48.242;11.654;2023-09-30T08:41:30;97217.19;;;17.93;83.40
62510;BME280;48558;48.242;11.654;2023-09-30T08:45:46;97223.06;;;17.75;84.13
62510;BME280;48558;48.242;11.654;2023-09-30T08:50:05;97224.34;;;18.40;79.90
62510;BME280;48558;48.242;11.654;2023-09-30T08:54:20;97245.19;;;18.59;79.43
62510;BME280;48558;48.242;11.654;2023-09-30T08:58:33;97245.19;;;18.59;78.76
62510;BME280;48558;48.242;11.654;2023-09-30T09:02:46;97243.50;;;18.67;78.23
62510;BME280;48558;48.242;11.654;2023-09-30T09:06:59;97223.59;;;18.91;78.05
62510;BME280;48558;48.242;11.654;2023-09-30T09:11:12;97223.47;;;19.37;74.56
62510;BME280;48558;48.242;11.654;2023-09-30T09:15:28;97221.00;;;19.13;73.51
62510;BME280;48558;48.242;11.654;2023-09-30T09:19:43;97213.84;;;18.81;75.59
62510;BME280;48558;48.242;11.654;2023-09-30T09:23:55;97212.53;;;19.39;71.93
62510;BME280;48558;48.242;11.654;2023-09-30T09:28:08;97208.50;;;19.45;70.50
62510;BME280;48558;48.242;11.654;2023-09-30T09:32:21;97220.56;;;19.20;71.23
62510;BME280;48558;48.242;11.654;2023-09-30T09:36:44;97236.78;;;19.16;71.50
62510;BME280;48558;48.242;11.654;2023-09-30T09:40:59;97222.31;;;19.49;71.49
62510;BME280;48558;48.242;11.654;2023-09-30T09:45:11;97207.50;;;19.96;67.49
62510;BME280;48558;48.242;11.654;2023-09-30T09:49:25;97199.94;;;19.65;67.50
62510;BME280;48558;48.242;11.654;2023-09-30T09:53:41;97209.00;;;19.44;67.88
62510;BME280;48558;48.242;11.654;2023-09-30T09:57:54;97197.50;;;19.78;67.72
62510;BME280;48558;48.242;11.654;2023-09-30T10:02:11;97217.59;;;19.77;67.93
62510;BME280;48558;48.242;11.654;2023-09-30T10:06:27;97192.53;;;19.57;70.73
62510;BME280;48558;48.242;11.654;2023-09-30T10:10:40;97180.41;;;19.76;68.15
62510;BME280;48558;48.242;11.654;2023-09-30T10:14:53;97190.47;;;20.11;66.87
62510;BME280;48558;48.242;11.654;2023-09-30T10:19:15;97197.81;;;20.78;65.03
62510;BME280;48558;48.242;11.654;2023-09-30T10:23:32;97202.03;;;19.70;66.52
62510;BME280;48558;48.242;11.654;2023-09-30T10:27:47;97197.22;;;20.30;65.98
62510;BME280;48558;48.242;11.654;2023-09-30T10:31:59;97178.06;;;20.34;64.94
62510;BME280;48558;48.242;11.654;2023-09-30T10:36:12;97173.78;;;20.44;64.26
62510;BME280;48558;48.242;11.654;2023-09-30T10:40:29;97176.81;;;20.51;64.87
62510;BME280;48558;48.242;11.654;2023-09-30T10:44:43;97187.09;;;20.82;64.51
62510;BME280;48558;48.242;11.654;2023-09-30T10:49:15;97180.09;;;21.72;63.57
62510;BME280;48558;48.242;11.654;2023-09-30T10:53:31;97184.69;;;21.86;59.55
62510;BME280;48558;48.242;11.654;2023-09-30T10:57:44;97184.88;;;22.56;58.20
62510;BME280;48558;48.242;11.654;2023-09-30T11:01:58;97192.25;;;22.70;59.78
62510;BME280;48558;48.242;11.654;2023-09-30T11:06:13;97190.69;;;22.69;58.06
62510;BME280;48558;48.242;11.654;2023-09-30T11:10:29;97185.31;;;21.34;59.45
62510;BME280;48558;48.242;11.654;2023-09-30T11:14:44;97187.09;;;21.37;60.17
62510;BME280;48558;48.242;11.654;2023-09-30T11:18:57;97172.38;;;21.94;57.35
62510;BME280;48558;48.242;11.654;2023-09-30T11:23:10;97179.41;;;21.55;58.50
62510;BME280;48558;48.242;11.654;2023-09-30T11:27:24;97177.34;;;19.80;63.83
62510;BME280;48558;48.242;11.654;2023-09-30T11:31:38;97171.78;;;19.85;63.02
62510;BME280;48558;48.242;11.654;2023-09-30T11:36:05;97179.94;;;20.92;60.78
62510;BME280;48558;48.242;11.654;2023-09-30T11:40:20;97168.13;;;21.66;61.33
62510;BME280;48558;48.242;11.654;2023-09-30T11:44:44;97175.81;;;21.60;57.50
62510;BME280;48558;48.242;11.654;2023-09-30T11:49:03;97177.41;;;21.22;58.90
62510;BME280;48558;48.242;11.654;2023-09-30T11:53:19;97177.13;;;20.76;59.87
62510;BME280;48558;48.242;11.654;2023-09-30T11:57:33;97174.06;;;21.34;59.69
62510;BME280;48558;48.242;11.654;2023-09-30T12:01:47;97160.44;;;21.66;57.79
62510;BME280;48558;48.242;11.654;2023-09-30T12:06:17;97146.75;;;22.03;57.24
62510;BME280;48558;48.242;11.654;2023-09-30T12:10:30;97137.91;;;21.72;59.58
62510;BME280;48558;48.242;11.654;2023-09-30T12:14:43;97138.56;;;20.93;59.95
62510;BME280;48558;48.242;11.654;2023-09-30T12:18:56;97133.16;;;22.13;57.44
62510;BME280;48558;48.242;11.654;2023-09-30T12:23:10;97127.63;;;23.08;52.79
62510;BME280;48558;48.242;11.654;2023-09-30T12:27:22;97123.63;;;23.94;51.93
62510;BME280;48558;48.242;11.654;2023-09-30T12:31:35;97117.88;;;23.81;53.52
62510;BME280;48558;48.242;11.654;2023-09-30T12:36:03;97116.97;;;23.49;52.88
62510;BME280;48558;48.242;11.654;2023-09-30T12:40:16;97117.50;;;22.58;53.64
62510;BME280;48558;48.242;11.654;2023-09-30T12:44:29;97108.31;;;23.17;53.23
62510;BME280;48558;48.242;11.654;2023-09-30T12:48:41;97116.81;;;22.82;51.34
62510;BME280;48558;48.242;11.654;2023-09-30T12:52:54;97119.94;;;22.38;52.79
62510;BME280;48558;48.242;11.654;2023-09-30T12:57:06;97120.91;;;22.05;54.50
62510;BME280;48558;48.242;11.654;2023-09-30T13:01:19;97132.38;;;22.12;54.10
62510;BME280;48558;48.242;11.654;2023-09-30T13:05:36;97128.00;;;22.17;54.89
62510;BME280;48558;48.242;11.654;2023-09-30T13:09:49;97123.88;;;21.66;54.61
62510;BME280;48558;48.242;11.654;2023-09-30T13:14:01;97123.59;;;21.70;54.50
62510;BME280;48558;48.242;11.654;2023-09-30T13:18:14;97124.97;;;21.35;55.06
62510;BME280;48558;48.242;11.654;2023-09-30T13:22:27;97101.19;;;21.42;54.72
62510;BME280;48558;48.242;11.654;2023-09-30T13:26:39;97104.00;;;21.48;54.66
62510;BME280;48558;48.242;11.654;2023-09-30T13:30:52;97096.91;;;20.97;57.18
62510;BME280;48558;48.242;11.654;2023-09-30T13:35:06;97097.94;;;20.60;57.39
62510;BME280;48558;48.242;11.654;2023-09-30T13:39:19;97105.25;;;20.02;58.32
62510;BME280;48558;48.242;11.654;2023-09-30T13:43:31;97102.78;;;20.21;58.10
62510;BME280;48558;48.242;11.654;2023-09-30T13:47:44;97094.88;;;20.58;57.00
62510;BME280;48558;48.242;11.654;2023-09-30T13:51:57;97068.25;;;21.37;55.09
62510;BME280;48558;48.242;11.654;2023-09-30T13:56:10;97064.84;;;21.55;55.15
62510;BME280;48558;48.242;11.654;2023-09-30T14:00:23;97074.56;;;21.49;54.51
62510;BME280;48558;48.242;11.654;2023-09-30T14:04:35;97066.28;;;20.93;55.38
62510;BME280;48558;48.242;11.654;2023-09-30T14:08:48;97082.63;;;20.67;55.55
62510;BME280;48558;48.242;11.654;2023-09-30T14:13:00;97073.44;;;21.05;54.90
62510;BME280;48558;48.242;11.654;2023-09-30T14:17:13;97081.53;;;21.36;55.38
62510;BME280;48558;48.242;11.654;2023-09-30T14:21:27;97074.44;;;21.08;54.31
62510;BME280;48558;48.242;11.654;2023-09-30T14:25:39;97082.09;;;21.13;55.14
62510;BME280;48558;48.242;11.654;2023-09-30T14:29:52;97077.72;;;20.18;57.01
62510;BME280;48558;48.242;11.654;2023-09-30T14:34:05;97070.88;;;20.24;56.50
62510;BME280;48558;48.242;11.654;2023-09-30T14:38:19;97075.16;;;20.20;55.90
62510;BME280;48558;48.242;11.654;2023-09-30T14:42:32;97079.81;;;20.34;56.10
62510;BME280;48558;48.242;11.654;2023-09-30T14:46:44;97078.56;;;20.35;57.13
62510;BME280;48558;48.242;11.654;2023-09-30T14:50:57;97074.22;;;20.45;56.77
62510;BME280;48558;48.242;11.654;2023-09-30T14:55:10;97075.25;;;20.42;56.29
62510;BME280;48558;48.242;11.654;2023-09-30T14:59:23;97084.44;;;20.59;57.41
62510;BME280;48558;48.242;11.654;2023-09-30T15:03:36;97078.31;;;20.55;57.31
62510;BME280;48558;48.242;11.654;2023-09-30T15:07:51;97083.59;;;20.20;58.98
62510;BME280;48558;48.242;11.654;2023-09-30T15:12:04;97085.09;;;19.98;58.47
62510;BME280;48558;48.242;11.654;2023-09-30T15:16:21;97069.25;;;19.84;59.66
62510;BME280;48558;48.242;11.654;2023-09-30T15:20:38;97053.41;;;19.76;59.90
62510;BME280;48558;48.242;11.654;2023-09-30T15:24:52;97078.13;;;19.66;59.77
62510;BME280;48558;48.242;11.654;2023-09-30T15:29:04;97070.47;;;19.67;60.28
62510;BME280;48558;48.242;11.654;2023-09-30T15:33:17;97072.50;;;19.66;61.18
62510;BME280;48558;48.242;11.654;2023-09-30T15:37:29;97066.88;;;19.61;60.34
62510;BME280;48558;48.242;11.654;2023-09-30T15:41:42;97075.84;;;19.81;59.99
62510;BME280;48558;48.242;11.654;2023-09-30T15:45:55;97072.69;;;19.52;59.45
62510;BME280;48558;48.242;11.654;2023-09-30T15:50:09;97073.94;;;19.45;60.57
62510;BME280;48558;48.242;11.654;2023-09-30T15:54:21;97072.94;;;19.48;59.90
62510;BME280;48558;48.242;11.654;2023-09-30T15:58:34;97076.22;;;19.36;60.32
62510;BME280;48558;48.242;11.654;2023-09-30T16:02:47;97077.84;;;19.16;64.69
62510;BME280;48558;48.242;11.654;2023-09-30T16:06:59;97091.75;;;18.94;62.76
62510;BME280;48558;48.242;11.654;2023-09-30T16:11:12;97087.56;;;18.79;63.58
62510;BME280;48558;48.242;11.654;2023-09-30T16:15:25;97089.38;;;18.50;63.37
62510;BME280;48558;48.242;11.654;2023-09-30T16:19:38;97085.47;;;18.42;63.44
62510;BME280;48558;48.242;11.654;2023-09-30T16:23:50;97099.53;;;18.48;62.98
62510;BME280;48558;48.242;11.654;2023-09-30T16:28:03;97099.34;;;18.57;62.08
62510;BME280;48558;48.242;11.654;2023-09-30T16:32:17;97093.97;;;18.28;63.28
62510;BME280;48558;48.242;11.654;2023-09-30T16:36:29;97092.13;;;18.19;62.78
62510;BME280;48558;48.242;11.654;2023-09-30T16:40:48;97086.75;;;17.90;64.83
62510;BME280;48558;48.242;11.654;2023-09-30T16:45:01;97092.56;;;17.66;65.71
62510;BME280;48558;48.242;11.654;2023-09-30T16:49:15;97087.06;;;17.52;65.50
62510;BME280;48558;48.242;11.654;2023-09-30T16:53:28;97091.19;;;17.56;65.41
62510;BME280;48558;48.242;11.654;2023-09-30T16:57:40;97101.97;;;17.29;67.21
62510;BME280;48558;48.242;11.654;2023-09-30T17:01:53;97097.91;;;17.09;71.97
62510;BME280;48558;48.242;11.654;2023-09-30T17:06:07;97098.22;;;16.97;77.23
62510;BME280;48558;48.242;11.654;2023-09-30T17:10:19;97095.72;;;16.99;84.67
62510;BME280;48558;48.242;11.654;2023-09-30T17:14:33;97109.72;;;16.84;89.70
62510;BME280;48558;48.242;11.654;2023-09-30T17:18:49;97101.47;;;16.75;93.59
62510;BME280;48558;48.242;11.654;2023-09-30T17:23:02;97108.91;;;16.64;96.02
62510;BME280;48558;48.242;11.654;2023-09-30T17:27:14;97106.50;;;16.57;97.20
62510;BME280;48558;48.242;11.654;2023-09-30T17:31:27;97102.25;;;16.46;97.98
62510;BME280;48558;48.242;11.654;2023-09-30T17:35:40;97111.59;;;16.29;100.00
62510;BME280;48558;48.242;11.654;2023-09-30T17:39:53;97103.13;;;15.94;100.00
62510;BME280;48558;48.242;11.654;2023-09-30T17:44:05;97117.13;;;15.85;100.00
62510;BME280;48558;48.242;11.654;2023-09-30T17:48:18;97121.19;;;15.60;100.00
62510;BME280;48558;48.242;11.654;2023-09-30T17:52:34;97117.47;;;15.40;100.00
62510;BME280;48558;48.242;11.654;2023-09-30T17:56:47;97125.50;;;15.14;100.00
62510;BME280;48558;48.242;11.654;2023-09-30T18:00:59;97131.75;;;15.00;100.00
62510;BME280;48558;48.242;11.654;2023-09-30T18:05:12;97132.78;;;14.88;100.00
62510;BME280;48558;48.242;11.654;2023-09-30T18:09:25;97118.28;;;14.75;100.00
62510;BME280;48558;48.242;11.654;2023-09-30T18:13:38;97130.69;;;14.65;100.00
62510;BME280;48558;48.242;11.654;2023-09-30T18:17:51;97123.34;;;14.44;100.00
62510;BME280;48558;48.242;11.654;2023-09-30T18:22:19;97136.34;;;14.38;100.00
62510;BME280;48558;48.242;11.654;2023-09-30T18:26:32;97139.41;;;14.49;100.00
62510;BME280;48558;48.242;11.654;2023-09-30T18:30:45;97129.41;;;14.24;100.00
62510;BME280;48558;48.242;11.654;2023-09-30T18:34:58;97146.41;;;14.08;100.00
62510;BME280;48558;48.242;11.654;2023-09-30T18:39:10;97146.28;;;13.93;100.00
62510;BME280;48558;48.242;11.654;2023-09-30T18:43:36;97151.38;;;13.86;100.00
62510;BME280;48558;48.242;11.654;2023-09-30T18:47:49;97153.84;;;13.84;100.00
62510;BME280;48558;48.242;11.654;2023-09-30T18:52:03;97143.34;;;13.88;100.00
62510;BME280;48558;48.242;11.654;2023-09-30T18:56:20;97154.91;;;14.13;100.00
62510;BME280;48558;48.242;11.654;2023-09-30T19:00:40;97151.81;;;14.11;100.00
62510;BME280;48558;48.242;11.654;2023-09-30T19:04:54;97162.78;;;14.06;100.00
62510;BME280;48558;48.242;11.654;2023-09-30T19:09:07;97170.03;;;14.03;100.00
62510;BME280;48558;48.242;11.654;2023-09-30T19:13:19;97150.59;;;13.85;100.00
62510;BME280;48558;48.242;11.654;2023-09-30T19:17:33;97166.66;;;13.99;100.00
62510;BME280;48558;48.242;11.654;2023-09-30T19:21:46;97154.31;;;13.91;100.00
62510;BME280;48558;48.242;11.654;2023-09-30T19:25:59;97168.84;;;13.77;100.00
62510;BME280;48558;48.242;11.654;2023-09-30T19:30:12;97167.88;;;13.71;100.00
62510;BME280;48558;48.242;11.654;2023-09-30T19:34:24;97165.09;;;13.71;100.00
62510;BME280;48558;48.242;11.654;2023-09-30T19:38:38;97167.44;;;13.82;100.00
62510;BME280;48558;48.242;11.654;2023-09-30T19:42:51;97169.56;;;13.59;100.00
62510;BME280;48558;48.242;11.654;2023-09-30T19:47:04;97175.41;;;13.43;100.00
62510;BME280;48558;48.242;11.654;2023-09-30T19:51:22;97162.88;;;13.30;100.00
62510;BME280;48558;48.242;11.654;2023-09-30T19:55:36;97168.09;;;13.10;100.00
62510;BME280;48558;48.242;11.654;2023-09-30T19:59:49;97178.19;;;12.94;100.00
62510;BME280;48558;48.242;11.654;2023-09-30T20:04:02;97174.75;;;12.81;100.00
62510;BME280;48558;48.242;11.654;2023-09-30T20:08:14;97183.63;;;12.67;100.00
62510;BME280;48558;48.242;11.654;2023-09-30T20:12:27;97187.44;;;12.61;100.00
62510;BME280;48558;48.242;11.654;2023-09-30T20:16:39;97183.03;;;12.72;100.00
62510;BME280;48558;48.242;11.654;2023-09-30T20:20:53;97186.59;;;12.73;100.00
62510;BME280;48558;48.242;11.654;2023-09-30T20:25:06;97168.91;;;12.79;100.00
62510;BME280;48558;48.242;11.654;2023-09-30T20:29:19;97157.81;;;12.49;100.00
62510;BME280;48558;48.242;11.654;2023-09-30T20:33:32;97172.53;;;12.37;100.00
62510;BME280;48558;48.242;11.654;2023-09-30T20:37:45;97179.06;;;12.21;100.00
62510;BME280;48558;48.242;11.654;2023-09-30T20:41:58;97176.81;;;12.07;100.00
62510;BME280;48558;48.242;11.654;2023-09-30T20:46:10;97189.50;;;11.95;100.00
62510;BME280;48558;48.242;11.654;2023-09-30T20:50:27;97190.84;;;11.91;100.00
62510;BME280;48558;48.242;11.654;2023-09-30T20:54:40;97195.59;;;11.90;100.00
62510;BME280;48558;48.242;11.654;2023-09-30T20:58:52;97193.94;;;11.93;100.00
62510;BME280;48558;48.242;11.654;2023-09-30T21:03:06;97190.44;;;11.80;100.00
62510;BME280;48558;48.242;11.654;2023-09-30T21:07:19;97187.59;;;11.71;100.00
62510;BME280;48558;48.242;11.654;2023-09-30T21:11:32;97187.34;;;11.65;100.00
62510;BME280;48558;48.242;11.654;2023-09-30T21:15:46;97198.00;;;11.67;100.00
62510;BME280;48558;48.242;11.654;2023-09-30T21:19:58;97195.91;;;11.58;100.00
62510;BME280;48558;48.242;11.654;2023-09-30T21:24:11;97196.94;;;11.51;100.00
62510;BME280;48558;48.242;11.654;2023-09-30T21:28:23;97198.81;;;11.54;100.00
62510;BME280;48558;48.242;11.654;2023-09-30T21:32:36;97199.50;;;11.46;100.00
62510;BME280;48558;48.242;11.654;2023-09-30T21:36:50;97191.63;;;11.44;100.00
62510;BME280;48558;48.242;11.654;2023-09-30T21:41:02;97198.84;;;11.42;100.00
62510;BME280;48558;48.242;11.654;2023-09-30T21:45:15;97195.31;;;11.41;100.00
62510;BME280;48558;48.242;11.654;2023-09-30T21:49:28;97200.94;;;11.38;100.00
62510;BME280;48558;48.242;11.654;2023-09-30T21:53:40;97205.63;;;11.28;100.00
62510;BME280;48558;48.242;11.654;2023-09-30T21:57:53;97220.03;;;11.23;100.00